sensor_id;sensor_type;location;lat;lon;timestamp;pressure;altitude;pressure_sealevel;temperature;humidity
15444;BME280;7822;48.146;11.576;2023-07-24T00:02:02;94638.06;;;19.81;77.21
15444;BME280;7822;48.146;11.576;2023-07-24T00:04:30;94639.09;;;19.80;77.16
15444;BME280;7822;48.146;11.576;2023-07-24T00:06:58;94634.00;;;19.78;77.22
15444;BME280;7822;48.146;11.576;2023-07-24T00:09:25;94629.56;;;19.79;77.67
15444;BME280;7822;48.146;11.576;2023-07-24T00:11:53;94629.75;;;19.77;77.81
15444;BME280;7822;48.146;11.576;2023-07-24T00:14:20;94627.94;;;19.78;77.43
15444;BME280;7822;48.146;11.576;2023-07-24T00:16:49;94621.88;;;19.77;77.16
15444;BME280;7822;48.146;11.576;2023-07-24T00:19:17;94612.16;;;19.78;77.48
15444;BME280;7822;48.146;11.576;2023-07-24T00:21:44;94606.06;;;19.77;77.43
15444;BME280;7822;48.146;11.576;2023-07-24T00:24:12;94606.88;;;19.78;77.35
15444;BME280;7822;48.146;11.576;2023-07-24T00:26:39;94605.03;;;19.78;77.11
15444;BME280;7822;48.146;11.576;2023-07-24T00:29:07;94599.00;;;19.78;77.01
15444;BME280;7822;48.146;11.576;2023-07-24T00:31:34;94595.53;;;19.77;77.62
15444;BME280;7822;48.146;11.576;2023-07-24T00:34:03;94593.13;;;19.76;77.68
15444;BME280;7822;48.146;11.576;2023-07-24T00:36:31;94578.31;;;19.75;77.44
15444;BME280;7822;48.146;11.576;2023-07-24T00:38:58;94588.84;;;19.75;77.35
15444;BME280;7822;48.146;11.576;2023-07-24T00:41:26;94584.56;;;19.74;77.39
15444;BME280;7822;48.146;11.576;2023-07-24T00:43:53;94573.25;;;19.73;77.53
15444;BME280;7822;48.146;11.576;2023-07-24T00:46:21;94579.31;;;19.74;77.07
15444;BME280;7822;48.146;11.576;2023-07-24T00:48:48;94566.34;;;19.72;76.91
15444;BME280;7822;48.146;11.576;2023-07-24T00:51:18;94570.78;;;19.72;76.98
15444;BME280;7822;48.146;11.576;2023-07-24T00:53:45;94571.81;;;19.71;77.28
15444;BME280;7822;48.146;11.576;2023-07-24T00:56:14;94570.00;;;19.71;76.97
15444;BME280;7822;48.146;11.576;2023-07-24T00:58:41;94568.56;;;19.69;76.58
15444;BME280;7822;48.146;11.576;2023-07-24T01:01:09;94574.00;;;19.67;76.23
15444;BME280;7822;48.146;11.576;2023-07-24T01:03:37;94569.97;;;19.65;76.11
15444;BME280;7822;48.146;11.576;2023-07-24T01:06:05;94563.88;;;19.64;76.12
15444;BME280;7822;48.146;11.576;2023-07-24T01:08:34;94554.19;;;19.65;76.34
15444;BME280;7822;48.146;11.576;2023-07-24T01:11:03;94559.63;;;19.63;76.03
15444;BME280;7822;48.146;11.576;2023-07-24T01:13:35;94565.91;;;19.62;75.99
15444;BME280;7822;48.146;11.576;2023-07-24T01:16:04;94558.81;;;19.63;76.06
15444;BME280;7822;48.146;11.576;2023-07-24T01:18:36;94564.88;;;19.63;75.76
15444;BME280;7822;48.146;11.576;2023-07-24T01:21:07;94555.16;;;19.64;75.92
15444;BME280;7822;48.146;11.576;2023-07-24T01:23:41;94557.44;;;19.67;76.36
15444;BME280;7822;48.146;11.576;2023-07-24T01:26:13;94555.59;;;19.67;76.50
15444;BME280;7822;48.146;11.576;2023-07-24T01:28:41;94558.88;;;19.69;75.94
15444;BME280;7822;48.146;11.576;2023-07-24T01:31:08;94543.25;;;19.68;76.53
15444;BME280;7822;48.146;11.576;2023-07-24T01:33:36;94534.53;;;19.67;76.63
15444;BME280;7822;48.146;11.576;2023-07-24T01:36:04;94528.28;;;19.68;76.45
15444;BME280;7822;48.146;11.576;2023-07-24T01:38:31;94522.00;;;19.69;76.29
15444;BME280;7822;48.146;11.576;2023-07-24T01:41:01;94516.53;;;19.71;76.27
15444;BME280;7822;48.146;11.576;2023-07-24T01:43:31;94515.72;;;19.70;76.25
15444;BME280;7822;48.146;11.576;2023-07-24T01:45:59;94522.81;;;19.70;76.39
15444;BME280;7822;48.146;11.576;2023-07-24T01:48:26;94517.75;;;19.68;76.32
15444;BME280;7822;48.146;11.576;2023-07-24T01:50:54;94526.03;;;19.65;75.99
15444;BME280;7822;48.146;11.576;2023-07-24T01:53:21;94529.69;;;19.64;75.91
15444;BME280;7822;48.146;11.576;2023-07-24T01:55:49;94534.94;;;19.64;76.05
15444;BME280;7822;48.146;11.576;2023-07-24T01:58:16;94527.25;;;19.63;75.49
15444;BME280;7822;48.146;11.576;2023-07-24T02:00:45;94531.06;;;19.60;75.75
15444;BME280;7822;48.146;11.576;2023-07-24T02:03:13;94525.81;;;19.60;75.33
15444;BME280;7822;48.146;11.576;2023-07-24T02:05:41;94522.38;;;19.60;75.75
15444;BME280;7822;48.146;11.576;2023-07-24T02:08:09;94532.88;;;19.60;75.45
15444;BME280;7822;48.146;11.576;2023-07-24T02:10:36;94539.97;;;19.59;75.35
15444;BME280;7822;48.146;11.576;2023-07-24T02:13:05;94545.22;;;19.59;75.59
15444;BME280;7822;48.146;11.576;2023-07-24T02:15:33;94546.03;;;19.60;75.94
15444;BME280;7822;48.146;11.576;2023-07-24T02:18:02;94545.03;;;19.61;75.92
15444;BME280;7822;48.146;11.576;2023-07-24T02:20:30;94535.94;;;19.63;75.93
15444;BME280;7822;48.146;11.576;2023-07-24T02:22:57;94553.16;;;19.66;75.93
15444;BME280;7822;48.146;11.576;2023-07-24T02:25:25;94541.03;;;19.65;75.80
15444;BME280;7822;48.146;11.576;2023-07-24T02:27:52;94535.75;;;19.65;76.02
15444;BME280;7822;48.146;11.576;2023-07-24T02:30:20;94544.44;;;19.65;76.52
15444;BME280;7822;48.146;11.576;2023-07-24T02:32:47;94587.38;;;19.66;76.18
15444;BME280;7822;48.146;11.576;2023-07-24T02:35:16;94652.53;;;19.64;76.24
15444;BME280;7822;48.146;11.576;2023-07-24T02:37:44;94631.84;;;19.61;75.75
15444;BME280;7822;48.146;11.576;2023-07-24T02:40:12;94616.47;;;19.58;75.66
15444;BME280;7822;48.146;11.576;2023-07-24T02:42:39;94590.16;;;19.58;75.61
15444;BME280;7822;48.146;11.576;2023-07-24T02:45:07;94589.13;;;19.59;75.55
15444;BME280;7822;48.146;11.576;2023-07-24T02:47:37;94604.13;;;19.58;75.88
15444;BME280;7822;48.146;11.576;2023-07-24T02:50:05;94572.56;;;19.58;75.65
15444;BME280;7822;48.146;11.576;2023-07-24T02:52:34;94568.09;;;19.59;75.59
15444;BME280;7822;48.146;11.576;2023-07-24T02:55:01;94582.69;;;19.61;75.63
15444;BME280;7822;48.146;11.576;2023-07-24T02:57:29;94605.38;;;19.62;75.71
15444;BME280;7822;48.146;11.576;2023-07-24T02:59:56;94637.78;;;19.63;75.63
15444;BME280;7822;48.146;11.576;2023-07-24T03:02:24;94707.81;;;19.64;75.70
15444;BME280;7822;48.146;11.576;2023-07-24T03:04:52;94762.88;;;19.65;75.52
15444;BME280;7822;48.146;11.576;2023-07-24T03:07:19;94836.56;;;19.65;75.93
15444;BME280;7822;48.146;11.576;2023-07-24T03:09:48;94828.66;;;19.65;76.10
15444;BME280;7822;48.146;11.576;2023-07-24T03:12:17;94792.22;;;19.62;76.76
15444;BME280;7822;48.146;11.576;2023-07-24T03:14:45;94757.19;;;19.62;77.84
15444;BME280;7822;48.146;11.576;2023-07-24T03:17:12;94761.00;;;19.59;78.75
15444;BME280;7822;48.146;11.576;2023-07-24T03:19:40;94754.91;;;19.59;78.95
15444;BME280;7822;48.146;11.576;2023-07-24T03:22:07;94734.88;;;19.58;79.30
15444;BME280;7822;48.146;11.576;2023-07-24T03:24:35;94696.25;;;19.58;79.45
15444;BME280;7822;48.146;11.576;2023-07-24T03:27:04;94678.81;;;19.57;79.78
15444;BME280;7822;48.146;11.576;2023-07-24T03:29:31;94683.06;;;19.58;80.00
15444;BME280;7822;48.146;11.576;2023-07-24T03:31:59;94675.97;;;19.59;80.21
15444;BME280;7822;48.146;11.576;2023-07-24T03:34:26;94633.88;;;19.59;80.31
15444;BME280;7822;48.146;11.576;2023-07-24T03:36:54;94613.63;;;19.59;80.53
15444;BME280;7822;48.146;11.576;2023-07-24T03:39:21;94572.34;;;19.60;80.29
15444;BME280;7822;48.146;11.576;2023-07-24T03:41:49;94546.88;;;19.60;80.51
15444;BME280;7822;48.146;11.576;2023-07-24T03:44:18;94565.47;;;19.59;81.01
15444;BME280;7822;48.146;11.576;2023-07-24T03:46:45;94575.19;;;19.58;81.83
15444;BME280;7822;48.146;11.576;2023-07-24T03:49:13;94563.84;;;19.58;81.98
15444;BME280;7822;48.146;11.576;2023-07-24T03:51:40;94561.22;;;19.58;82.19
15444;BME280;7822;48.146;11.576;2023-07-24T03:54:08;94577.81;;;19.58;82.01
15444;BME280;7822;48.146;11.576;2023-07-24T03:56:36;94559.41;;;19.58;82.25
15444;BME280;7822;48.146;11.576;2023-07-24T03:59:05;94563.66;;;19.59;82.04
15444;BME280;7822;48.146;11.576;2023-07-24T04:01:33;94552.13;;;19.60;82.07
15444;BME280;7822;48.146;11.576;2023-07-24T04:04:01;94544.22;;;19.60;81.88
15444;BME280;7822;48.146;11.576;2023-07-24T04:06:28;94547.47;;;19.62;81.82
15444;BME280;7822;48.146;11.576;2023-07-24T04:08:57;94550.13;;;19.62;81.64
15444;BME280;7822;48.146;11.576;2023-07-24T04:11:24;94553.34;;;19.64;81.69
15444;BME280;7822;48.146;11.576;2023-07-24T04:13:52;94552.34;;;19.65;81.69
15444;BME280;7822;48.146;11.576;2023-07-24T04:16:19;94553.97;;;19.66;81.54
15444;BME280;7822;48.146;11.576;2023-07-24T04:18:48;94553.97;;;19.66;81.59
15444;BME280;7822;48.146;11.576;2023-07-24T04:21:15;94561.66;;;19.68;81.68
15444;BME280;7822;48.146;11.576;2023-07-24T04:23:43;94564.13;;;19.69;81.46
15444;BME280;7822;48.146;11.576;2023-07-24T04:26:10;94574.44;;;19.71;81.19
15444;BME280;7822;48.146;11.576;2023-07-24T04:28:38;94596.94;;;19.73;81.04
15444;BME280;7822;48.146;11.576;2023-07-24T04:31:05;94614.34;;;19.74;80.79
15444;BME280;7822;48.146;11.576;2023-07-24T04:33:33;94608.91;;;19.76;80.66
15444;BME280;7822;48.146;11.576;2023-07-24T04:36:02;94607.06;;;19.76;80.61
15444;BME280;7822;48.146;11.576;2023-07-24T04:38:29;94607.69;;;19.78;80.87
15444;BME280;7822;48.146;11.576;2023-07-24T04:40:57;94602.41;;;19.78;80.62
15444;BME280;7822;48.146;11.576;2023-07-24T04:43:27;94593.53;;;19.79;80.55
15444;BME280;7822;48.146;11.576;2023-07-24T04:45:54;94580.38;;;19.79;80.73
15444;BME280;7822;48.146;11.576;2023-07-24T04:48:22;94578.56;;;19.80;80.47
15444;BME280;7822;48.146;11.576;2023-07-24T04:50:52;94575.91;;;19.80;80.53
15444;BME280;7822;48.146;11.576;2023-07-24T04:53:21;94583.81;;;19.80;80.28
15444;BME280;7822;48.146;11.576;2023-07-24T04:55:49;94589.91;;;19.80;80.29
15444;BME280;7822;48.146;11.576;2023-07-24T04:58:16;94584.63;;;19.80;80.36
15444;BME280;7822;48.146;11.576;2023-07-24T05:00:44;94582.78;;;19.81;80.36
15444;BME280;7822;48.146;11.576;2023-07-24T05:03:11;94580.97;;;19.81;80.21
15444;BME280;7822;48.146;11.576;2023-07-24T05:05:39;94577.53;;;19.81;80.31
15444;BME280;7822;48.146;11.576;2023-07-24T05:08:12;94581.78;;;19.82;80.30
15444;BME280;7822;48.146;11.576;2023-07-24T05:10:41;94587.06;;;19.82;80.15
15444;BME280;7822;48.146;11.576;2023-07-24T05:13:08;94589.69;;;19.82;80.48
15444;BME280;7822;48.146;11.576;2023-07-24T05:15:39;94593.16;;;19.82;80.29
15444;BME280;7822;48.146;11.576;2023-07-24T05:18:06;94584.22;;;19.83;80.39
15444;BME280;7822;48.146;11.576;2023-07-24T05:20:34;94567.59;;;19.83;80.22
15444;BME280;7822;48.146;11.576;2023-07-24T05:23:01;94565.81;;;19.83;80.16
15444;BME280;7822;48.146;11.576;2023-07-24T05:25:29;94562.16;;;19.84;80.40
15444;BME280;7822;48.146;11.576;2023-07-24T05:27:57;94567.44;;;19.84;79.99
15444;BME280;7822;48.146;11.576;2023-07-24T05:30:25;94559.53;;;19.84;80.23
15444;BME280;7822;48.146;11.576;2023-07-24T05:32:52;94560.16;;;19.86;80.10
15444;BME280;7822;48.146;11.576;2023-07-24T05:35:20;94554.06;;;19.86;80.38
15444;BME280;7822;48.146;11.576;2023-07-24T05:37:47;94556.50;;;19.87;80.07
15444;BME280;7822;48.146;11.576;2023-07-24T05:40:15;94551.22;;;19.87;80.01
15444;BME280;7822;48.146;11.576;2023-07-24T05:42:42;94544.16;;;19.88;80.23
15444;BME280;7822;48.146;11.576;2023-07-24T05:45:11;94540.53;;;19.89;80.32
15444;BME280;7822;48.146;11.576;2023-07-24T05:47:40;94535.25;;;19.89;80.39
15444;BME280;7822;48.146;11.576;2023-07-24T05:50:08;94536.06;;;19.89;80.08
15444;BME280;7822;48.146;11.576;2023-07-24T05:52:36;94525.53;;;19.89;79.97
15444;BME280;7822;48.146;11.576;2023-07-24T05:55:03;94532.44;;;19.90;80.29
15444;BME280;7822;48.146;11.576;2023-07-24T05:57:31;94531.59;;;19.90;80.38
15444;BME280;7822;48.146;11.576;2023-07-24T05:59:58;94526.34;;;19.90;80.02
15444;BME280;7822;48.146;11.576;2023-07-24T06:02:27;94523.72;;;19.90;80.30
15444;BME280;7822;48.146;11.576;2023-07-24T06:04:55;94505.06;;;19.91;80.16
15444;BME280;7822;48.146;11.576;2023-07-24T06:07:22;94500.63;;;19.92;80.33
15444;BME280;7822;48.146;11.576;2023-07-24T06:09:50;94490.31;;;19.90;80.14
15444;BME280;7822;48.146;11.576;2023-07-24T06:12:17;94473.47;;;19.91;80.02
15444;BME280;7822;48.146;11.576;2023-07-24T06:14:45;94471.88;;;19.90;80.20
15444;BME280;7822;48.146;11.576;2023-07-24T06:17:12;94483.22;;;19.91;80.01
15444;BME280;7822;48.146;11.576;2023-07-24T06:19:41;94490.09;;;19.92;80.13
15444;BME280;7822;48.146;11.576;2023-07-24T06:22:09;94499.03;;;19.91;80.11
15444;BME280;7822;48.146;11.576;2023-07-24T06:24:36;94498.00;;;19.92;80.13
15444;BME280;7822;48.146;11.576;2023-07-24T06:27:04;94492.94;;;19.90;80.37
15444;BME280;7822;48.146;11.576;2023-07-24T06:29:33;94490.31;;;19.90;80.11
15444;BME280;7822;48.146;11.576;2023-07-24T06:32:04;94477.97;;;19.91;80.31
15444;BME280;7822;48.146;11.576;2023-07-24T06:34:31;94466.59;;;19.90;80.26
15444;BME280;7822;48.146;11.576;2023-07-24T06:37:00;94463.97;;;19.90;80.26
15444;BME280;7822;48.146;11.576;2023-07-24T06:39:46;94454.25;;;19.91;80.04
15444;BME280;7822;48.146;11.576;2023-07-24T06:42:13;94464.78;;;19.91;80.25
15444;BME280;7822;48.146;11.576;2023-07-24T06:44:41;94467.44;;;19.91;80.04
15444;BME280;7822;48.146;11.576;2023-07-24T06:47:08;94475.31;;;19.91;80.36
15444;BME280;7822;48.146;11.576;2023-07-24T06:49:36;94485.66;;;19.92;80.11
15444;BME280;7822;48.146;11.576;2023-07-24T06:52:05;94488.28;;;19.92;80.34
15444;BME280;7822;48.146;11.576;2023-07-24T06:54:33;94476.94;;;19.92;80.29
15444;BME280;7822;48.146;11.576;2023-07-24T06:57:00;94484.66;;;19.93;80.18
15444;BME280;7822;48.146;11.576;2023-07-24T06:59:28;94475.13;;;19.92;80.40
15444;BME280;7822;48.146;11.576;2023-07-24T07:01:55;94473.31;;;19.93;80.48
15444;BME280;7822;48.146;11.576;2023-07-24T07:04:23;94480.19;;;19.94;80.36
15444;BME280;7822;48.146;11.576;2023-07-24T07:06:50;94491.72;;;19.93;80.22
15444;BME280;7822;48.146;11.576;2023-07-24T07:09:19;94517.03;;;19.94;80.22
15444;BME280;7822;48.146;11.576;2023-07-24T07:11:47;94523.13;;;19.94;80.25
15444;BME280;7822;48.146;11.576;2023-07-24T07:14:14;94532.84;;;19.94;80.38
15444;BME280;7822;48.146;11.576;2023-07-24T07:16:42;94554.72;;;19.94;80.29
15444;BME280;7822;48.146;11.576;2023-07-24T07:19:10;94567.06;;;19.94;80.22
15444;BME280;7822;48.146;11.576;2023-07-24T07:25:07;94576.59;;;19.95;80.23
15444;BME280;7822;48.146;11.576;2023-07-24T07:27:35;94624.97;;;19.94;80.26
15444;BME280;7822;48.146;11.576;2023-07-24T07:30:02;94689.81;;;19.95;80.33
15444;BME280;7822;48.146;11.576;2023-07-24T07:32:31;94709.22;;;19.94;80.41
15444;BME280;7822;48.146;11.576;2023-07-24T07:34:58;94721.41;;;19.95;80.40
15444;BME280;7822;48.146;11.576;2023-07-24T07:37:26;94690.63;;;19.95;80.23
15444;BME280;7822;48.146;11.576;2023-07-24T07:39:53;94696.88;;;19.94;80.41
15444;BME280;7822;48.146;11.576;2023-07-24T07:42:22;94712.69;;;19.94;80.36
15444;BME280;7822;48.146;11.576;2023-07-24T07:44:50;94717.13;;;19.94;80.59
15444;BME280;7822;48.146;11.576;2023-07-24T07:47:17;94709.22;;;19.94;80.54
15444;BME280;7822;48.146;11.576;2023-07-24T07:49:45;94703.19;;;19.93;80.29
15444;BME280;7822;48.146;11.576;2023-07-24T07:52:12;94702.16;;;19.94;80.58
15444;BME280;7822;48.146;11.576;2023-07-24T07:54:45;94692.66;;;19.93;80.32
15444;BME280;7822;48.146;11.576;2023-07-24T07:57:13;94688.38;;;19.92;80.46
15444;BME280;7822;48.146;11.576;2023-07-24T07:59:42;94692.81;;;19.92;80.38
15444;BME280;7822;48.146;11.576;2023-07-24T08:02:09;94699.72;;;19.93;80.55
15444;BME280;7822;48.146;11.576;2023-07-24T08:04:37;94692.66;;;19.93;80.63
15444;BME280;7822;48.146;11.576;2023-07-24T08:07:04;94683.94;;;19.93;80.48
15444;BME280;7822;48.146;11.576;2023-07-24T08:09:32;94679.66;;;19.92;80.56
15444;BME280;7822;48.146;11.576;2023-07-24T08:11:59;94683.94;;;19.93;80.34
15444;BME280;7822;48.146;11.576;2023-07-24T08:14:27;94670.75;;;19.93;80.33
15444;BME280;7822;48.146;11.576;2023-07-24T08:16:56;94662.88;;;19.93;80.52
15444;BME280;7822;48.146;11.576;2023-07-24T08:19:23;94655.78;;;19.93;80.40
15444;BME280;7822;48.146;11.576;2023-07-24T08:21:54;94655.13;;;19.91;80.58
15444;BME280;7822;48.146;11.576;2023-07-24T08:24:22;94646.25;;;19.92;80.38
15444;BME280;7822;48.146;11.576;2023-07-24T08:26:50;94641.81;;;19.93;80.50
15444;BME280;7822;48.146;11.576;2023-07-24T08:29:17;94626.81;;;19.93;80.56
15444;BME280;7822;48.146;11.576;2023-07-24T08:31:45;94605.94;;;19.92;80.28
15444;BME280;7822;48.146;11.576;2023-07-24T08:34:14;94596.22;;;19.92;80.56
15444;BME280;7822;48.146;11.576;2023-07-24T08:36:41;94608.41;;;19.93;80.44
15444;BME280;7822;48.146;11.576;2023-07-24T08:39:09;94597.88;;;19.93;80.57
15444;BME280;7822;48.146;11.576;2023-07-24T08:41:36;94579.44;;;19.93;80.63
15444;BME280;7822;48.146;11.576;2023-07-24T08:44:04;94563.63;;;19.93;80.37
15444;BME280;7822;48.146;11.576;2023-07-24T08:46:33;94550.66;;;19.92;80.40
15444;BME280;7822;48.146;11.576;2023-07-24T08:49:02;94547.84;;;19.93;80.30
15444;BME280;7822;48.146;11.576;2023-07-24T08:51:31;94524.16;;;19.93;80.37
15444;BME280;7822;48.146;11.576;2023-07-24T08:54:00;94539.94;;;19.93;80.30
15444;BME280;7822;48.146;11.576;2023-07-24T08:56:28;94549.44;;;19.94;80.40
15444;BME280;7822;48.146;11.576;2023-07-24T08:58:56;94556.53;;;19.94;80.29
15444;BME280;7822;48.146;11.576;2023-07-24T09:01:24;94560.78;;;19.95;80.53
15444;BME280;7822;48.146;11.576;2023-07-24T09:03:52;94561.78;;;19.94;80.28
15444;BME280;7822;48.146;11.576;2023-07-24T09:06:19;94570.50;;;19.94;80.56
15444;BME280;7822;48.146;11.576;2023-07-24T09:08:48;94558.16;;;19.95;80.23
15444;BME280;7822;48.146;11.576;2023-07-24T09:11:15;94559.97;;;19.94;80.35
15444;BME280;7822;48.146;11.576;2023-07-24T09:13:43;94562.63;;;19.94;80.25
15444;BME280;7822;48.146;11.576;2023-07-24T09:16:20;94563.44;;;19.95;80.42
15444;BME280;7822;48.146;11.576;2023-07-24T09:18:48;94555.53;;;19.95;80.50
15444;BME280;7822;48.146;11.576;2023-07-24T09:21:35;94542.56;;;19.93;80.61
15444;BME280;7822;48.146;11.576;2023-07-24T09:24:11;94530.19;;;19.94;80.68
15444;BME280;7822;48.146;11.576;2023-07-24T09:26:48;94532.84;;;19.94;80.36
15444;BME280;7822;48.146;11.576;2023-07-24T09:29:16;94512.78;;;19.93;80.54
15444;BME280;7822;48.146;11.576;2023-07-24T09:31:44;94518.88;;;19.93;80.62
15444;BME280;7822;48.146;11.576;2023-07-24T09:34:15;94520.50;;;19.94;80.57
15444;BME280;7822;48.146;11.576;2023-07-24T09:36:43;94511.75;;;19.94;80.51
15444;BME280;7822;48.146;11.576;2023-07-24T09:39:12;94495.19;;;19.93;80.37
15444;BME280;7822;48.146;11.576;2023-07-24T09:41:40;94490.72;;;19.94;80.61
15444;BME280;7822;48.146;11.576;2023-07-24T09:44:07;94489.72;;;19.95;80.66
15444;BME280;7822;48.146;11.576;2023-07-24T09:46:35;94495.19;;;19.93;80.30
15444;BME280;7822;48.146;11.576;2023-07-24T09:49:13;94484.66;;;19.93;80.45
15444;BME280;7822;48.146;11.576;2023-07-24T09:51:40;94474.91;;;19.94;80.65
15444;BME280;7822;48.146;11.576;2023-07-24T09:54:15;94467.00;;;19.94;80.51
15444;BME280;7822;48.146;11.576;2023-07-24T09:56:43;94461.75;;;19.94;80.52
15444;BME280;7822;48.146;11.576;2023-07-24T09:59:22;94469.66;;;19.94;80.55
15444;BME280;7822;48.146;11.576;2023-07-24T10:01:50;94475.72;;;19.94;80.47
15444;BME280;7822;48.146;11.576;2023-07-24T10:04:18;94481.00;;;19.94;80.51
15444;BME280;7822;48.146;11.576;2023-07-24T10:06:47;94467.00;;;19.94;80.31
15444;BME280;7822;48.146;11.576;2023-07-24T10:09:15;94453.84;;;19.94;80.43
15444;BME280;7822;48.146;11.576;2023-07-24T10:11:45;94450.22;;;19.95;80.62
15444;BME280;7822;48.146;11.576;2023-07-24T10:14:12;94446.78;;;19.94;80.40
15444;BME280;7822;48.146;11.576;2023-07-24T10:16:40;94442.31;;;19.95;80.71
15444;BME280;7822;48.146;11.576;2023-07-24T10:19:12;94438.06;;;19.94;80.40
15444;BME280;7822;48.146;11.576;2023-07-24T10:21:43;94436.25;;;19.94;80.41
15444;BME280;7822;48.146;11.576;2023-07-24T10:24:11;94436.84;;;19.96;80.44
15444;BME280;7822;48.146;11.576;2023-07-24T10:26:51;94445.78;;;19.95;80.63
15444;BME280;7822;48.146;11.576;2023-07-24T10:29:23;94453.66;;;19.95;80.59
15444;BME280;7822;48.146;11.576;2023-07-24T10:31:53;94456.31;;;19.95;80.46
15444;BME280;7822;48.146;11.576;2023-07-24T10:34:22;94456.31;;;19.95;80.47
15444;BME280;7822;48.146;11.576;2023-07-24T10:36:49;94457.09;;;19.96;80.44
15444;BME280;7822;48.146;11.576;2023-07-24T10:39:17;94444.94;;;19.95;80.50
15444;BME280;7822;48.146;11.576;2023-07-24T10:41:47;94449.19;;;19.96;80.55
15444;BME280;7822;48.146;11.576;2023-07-24T10:44:15;94439.69;;;19.95;80.72
15444;BME280;7822;48.146;11.576;2023-07-24T10:46:43;94447.59;;;19.95;80.63
15444;BME280;7822;48.146;11.576;2023-07-24T10:49:11;94444.13;;;19.94;80.58
15444;BME280;7822;48.146;11.576;2023-07-24T10:51:38;94437.06;;;19.95;80.51
15444;BME280;7822;48.146;11.576;2023-07-24T10:54:06;94436.25;;;19.94;80.76
15444;BME280;7822;48.146;11.576;2023-07-24T10:56:33;94423.06;;;19.94;80.76
15444;BME280;7822;48.146;11.576;2023-07-24T10:59:03;94414.34;;;19.94;80.68
15444;BME280;7822;48.146;11.576;2023-07-24T11:01:32;94408.31;;;19.93;80.66
15444;BME280;7822;48.146;11.576;2023-07-24T11:04:01;94402.22;;;19.93;80.57
15444;BME280;7822;48.146;11.576;2023-07-24T11:06:29;94399.59;;;19.93;80.77
15444;BME280;7822;48.146;11.576;2023-07-24T11:08:58;94400.41;;;19.93;80.51
15444;BME280;7822;48.146;11.576;2023-07-24T11:11:29;94400.41;;;19.93;80.61
15444;BME280;7822;48.146;11.576;2023-07-24T11:13:57;94392.50;;;19.93;80.53
15444;BME280;7822;48.146;11.576;2023-07-24T11:16:26;94385.41;;;19.94;80.79
15444;BME280;7822;48.146;11.576;2023-07-24T11:18:55;94360.91;;;19.93;80.81
15444;BME280;7822;48.146;11.576;2023-07-24T11:21:22;94361.91;;;19.92;80.62
15444;BME280;7822;48.146;11.576;2023-07-24T11:23:51;94348.53;;;19.94;80.77
15444;BME280;7822;48.146;11.576;2023-07-24T11:26:19;94339.84;;;19.93;80.45
15444;BME280;7822;48.146;11.576;2023-07-24T11:28:46;94359.06;;;19.94;80.69
15444;BME280;7822;48.146;11.576;2023-07-24T11:31:14;94353.00;;;19.93;80.63
15444;BME280;7822;48.146;11.576;2023-07-24T11:33:42;94349.34;;;19.94;80.63
15444;BME280;7822;48.146;11.576;2023-07-24T11:36:11;94347.75;;;19.93;80.65
15444;BME280;7822;48.146;11.576;2023-07-24T11:38:39;94351.16;;;19.94;80.67
15444;BME280;7822;48.146;11.576;2023-07-24T11:41:07;94342.28;;;19.95;80.72
15444;BME280;7822;48.146;11.576;2023-07-24T11:43:35;94338.81;;;19.94;80.78
15444;BME280;7822;48.146;11.576;2023-07-24T11:46:02;94344.09;;;19.94;80.71
15444;BME280;7822;48.146;11.576;2023-07-24T11:48:30;94334.38;;;19.95;80.86
15444;BME280;7822;48.146;11.576;2023-07-24T11:50:57;94326.47;;;19.95;80.86
15444;BME280;7822;48.146;11.576;2023-07-24T11:53:27;94318.56;;;19.95;80.76
15444;BME280;7822;48.146;11.576;2023-07-24T11:55:55;94335.19;;;19.95;80.71
15444;BME280;7822;48.146;11.576;2023-07-24T11:58:25;94339.63;;;19.95;80.46
15444;BME280;7822;48.146;11.576;2023-07-24T12:00:53;94350.16;;;19.95;80.87
15444;BME280;7822;48.146;11.576;2023-07-24T12:03:21;94347.53;;;19.95;80.47
15444;BME280;7822;48.146;11.576;2023-07-24T12:05:49;94348.34;;;19.95;80.61
15444;BME280;7822;48.146;11.576;2023-07-24T12:08:17;94344.91;;;19.95;80.77
15444;BME280;7822;48.146;11.576;2023-07-24T12:10:46;94357.03;;;19.96;80.64
15444;BME280;7822;48.146;11.576;2023-07-24T12:13:15;94364.16;;;19.95;80.85
15444;BME280;7822;48.146;11.576;2023-07-24T12:15:46;94403.66;;;19.95;80.59
15444;BME280;7822;48.146;11.576;2023-07-24T12:18:14;94430.75;;;19.96;80.73
15444;BME280;7822;48.146;11.576;2023-07-24T12:20:41;94474.72;;;19.95;80.62
15444;BME280;7822;48.146;11.576;2023-07-24T12:23:09;94499.22;;;19.96;80.96
15444;BME280;7822;48.146;11.576;2023-07-24T12:25:37;94501.84;;;19.96;81.03
15444;BME280;7822;48.146;11.576;2023-07-24T12:28:05;94493.94;;;19.96;80.74
15444;BME280;7822;48.146;11.576;2023-07-24T12:30:33;94493.94;;;19.96;80.65
15444;BME280;7822;48.146;11.576;2023-07-24T12:33:01;94461.56;;;19.95;80.92
15444;BME280;7822;48.146;11.576;2023-07-24T12:35:28;94466.00;;;19.95;80.97
15444;BME280;7822;48.146;11.576;2023-07-24T12:37:56;94471.28;;;19.95;80.88
15444;BME280;7822;48.146;11.576;2023-07-24T12:40:23;94467.81;;;19.94;81.08
15444;BME280;7822;48.146;11.576;2023-07-24T12:42:51;94467.00;;;19.94;80.73
15444;BME280;7822;48.146;11.576;2023-07-24T12:45:20;94467.00;;;19.94;80.99
15444;BME280;7822;48.146;11.576;2023-07-24T12:47:47;94487.28;;;19.93;80.76
15444;BME280;7822;48.146;11.576;2023-07-24T12:50:15;94495.97;;;19.94;81.00
15444;BME280;7822;48.146;11.576;2023-07-24T12:52:43;94492.56;;;19.93;80.97
15444;BME280;7822;48.146;11.576;2023-07-24T12:55:11;94494.38;;;19.93;80.97
15444;BME280;7822;48.146;11.576;2023-07-24T12:57:38;94503.88;;;19.94;80.77
15444;BME280;7822;48.146;11.576;2023-07-24T13:00:06;94499.63;;;19.93;80.85
15444;BME280;7822;48.146;11.576;2023-07-24T13:02:36;94497.81;;;19.93;81.01
15444;BME280;7822;48.146;11.576;2023-07-24T13:05:04;94492.56;;;19.93;80.79
15444;BME280;7822;48.146;11.576;2023-07-24T13:07:32;94494.38;;;19.93;80.83
15444;BME280;7822;48.146;11.576;2023-07-24T13:09:59;94495.19;;;19.93;81.00